createdAt,value
2018-01-20T00:00:55.587Z,931.6
2018-01-20T00:01:58.984Z,931.7
2018-01-20T00:03:02.368Z,931.7
2018-01-20T00:04:05.767Z,931.7
2018-01-20T00:05:13.327Z,931.7
2018-01-20T00:06:16.705Z,931.7
2018-01-20T00:07:20.208Z,931.7
2018-01-20T00:08:24.194Z,931.7
2018-01-20T00:09:27.621Z,927.2
2018-01-20T00:10:31.214Z,931.8
2018-01-20T00:11:34.637Z,931.8
2018-01-20T00:12:38.011Z,931.9
2018-01-20T00:13:41.817Z,931.7
2018-01-20T00:14:45.265Z,931.9
2018-01-20T00:16:24.653Z,931.9
2018-01-20T00:17:28.287Z,931.9
2018-01-20T00:18:31.537Z,931.9
2018-01-20T00:19:35.495Z,931.8
2018-01-20T00:20:39.523Z,932
2018-01-20T00:21:43.547Z,931.9
2018-01-20T00:22:47.597Z,927.8
2018-01-20T00:23:51.631Z,932
2018-01-20T00:24:55.147Z,932
2018-01-20T00:25:59.076Z,932
2018-01-20T00:27:05.705Z,932
2018-01-20T00:28:09.193Z,932
2018-01-20T00:29:12.645Z,932
2018-01-20T00:30:15.941Z,932
2018-01-20T00:31:19.845Z,932.1
2018-01-20T00:32:23.942Z,932
2018-01-20T00:33:28.042Z,932
2018-01-20T00:34:32.238Z,932
2018-01-20T00:35:35.493Z,932.1
2018-01-20T00:36:39.924Z,932
2018-01-20T00:37:49.077Z,932
2018-01-20T00:38:54.198Z,932
2018-01-20T00:39:58.633Z,932
2018-01-20T00:41:03.209Z,932.2
2018-01-20T00:42:06.768Z,932.2
2018-01-20T00:43:10.802Z,932.1
2018-01-20T00:44:14.784Z,932.1
2018-01-20T00:45:18.052Z,932.1
2018-01-20T00:46:21.483Z,932.1
2018-01-20T00:47:24.895Z,932.1
2018-01-20T00:48:34.191Z,932.1
2018-01-20T00:49:37.538Z,932.2
2018-01-20T00:50:42.348Z,932.2
2018-01-20T00:51:46.839Z,932.2
2018-01-20T00:52:52.612Z,932.2
2018-01-20T00:53:56.498Z,932.2
2018-01-20T00:55:01.433Z,932.2
2018-01-20T00:56:06.028Z,928.1
2018-01-20T00:57:10.160Z,932.2
2018-01-20T00:58:14.821Z,932.3
2018-01-20T00:59:21.746Z,932.2
2018-01-20T01:00:27.909Z,932.2
2018-01-20T01:01:33.555Z,932.2
2018-01-20T01:02:36.929Z,932.3
2018-01-20T01:03:40.219Z,932.2
2018-01-20T01:04:43.658Z,932.2
2018-01-20T01:05:47.804Z,932.3
2018-01-20T01:06:51.158Z,932.2
2018-01-20T01:07:54.872Z,932.2
2018-01-20T01:08:58.757Z,932.3
2018-01-20T01:10:07.303Z,932.2
2018-01-20T01:11:10.560Z,932.3
2018-01-20T01:12:15.245Z,932.3
2018-01-20T01:13:19.249Z,932.2
2018-01-20T01:14:23.234Z,932.2
2018-01-20T01:15:27.890Z,932.3
2018-01-20T01:16:32.493Z,932.2
2018-01-20T01:17:37.716Z,928.1
2018-01-20T01:18:41.612Z,932.2
2018-01-20T01:19:45.723Z,932.3
2018-01-20T01:20:53.920Z,932.3
2018-01-20T01:21:58.512Z,932.3
2018-01-20T01:23:03.325Z,932.3
2018-01-20T01:24:09.045Z,932.3
2018-01-20T01:25:13.448Z,932.3
2018-01-20T01:26:17.366Z,932.3
2018-01-20T01:27:21.386Z,932.3
2018-01-20T01:28:24.694Z,932.3
2018-01-20T01:29:28.466Z,932.3
2018-01-20T01:30:32.847Z,932.3
2018-01-20T01:32:11.298Z,932.3
2018-01-20T01:33:15.459Z,932.2
2018-01-20T01:34:20.187Z,932.3
2018-01-20T01:35:24.389Z,932.3
2018-01-20T01:36:28.418Z,932.3
2018-01-20T01:37:32.453Z,932.3
2018-01-20T01:38:37.072Z,932.3
2018-01-20T01:39:40.453Z,932.3
2018-01-20T01:40:44.489Z,932.4
2018-01-20T01:41:47.900Z,932.3
2018-01-20T01:42:56.361Z,932.4
2018-01-20T01:44:00.948Z,932.3
2018-01-20T01:45:04.318Z,932.3
2018-01-20T01:46:07.896Z,932.3
2018-01-20T01:47:11.410Z,932.2
2018-01-20T01:48:16.408Z,932.4
2018-01-20T01:49:20.764Z,932.3
2018-01-20T01:50:24.760Z,932.3
2018-01-20T01:51:28.811Z,932.3
2018-01-20T01:52:33.434Z,932.4
2018-01-20T01:53:41.364Z,932.3
2018-01-20T01:54:45.815Z,932.3
2018-01-20T01:55:49.791Z,932.2
2018-01-20T01:56:54.021Z,932.2
2018-01-20T01:57:57.433Z,932.3
2018-01-20T01:59:01.401Z,932.3
2018-01-20T02:00:04.774Z,932.2
2018-01-20T02:01:09.217Z,932.3
2018-01-20T02:02:13.431Z,932.2
2018-01-20T02:03:16.745Z,932.2
2018-01-20T02:04:56.156Z,932.3
2018-01-20T02:06:00.169Z,932.3
2018-01-20T02:07:03.447Z,932.3
2018-01-20T02:08:08.300Z,932.3
2018-01-20T02:09:11.750Z,932.3
2018-01-20T02:10:16.373Z,932.3
2018-01-20T02:11:22.837Z,932.3
2018-01-20T02:12:26.923Z,932.3
2018-01-20T02:13:31.079Z,932.3
2018-01-20T02:14:35.957Z,932.2
2018-01-20T02:16:15.270Z,932.2
2018-01-20T02:17:19.378Z,932.3
2018-01-20T02:18:23.518Z,932.2
2018-01-20T02:19:26.872Z,932.3
2018-01-20T02:20:30.980Z,932.2
2018-01-20T02:21:35.296Z,932.1
2018-01-20T02:22:38.574Z,932.2
2018-01-20T02:23:41.840Z,932.2
2018-01-20T02:24:45.935Z,932.2
2018-01-20T02:25:49.156Z,932.1
2018-01-20T02:26:55.967Z,932.1
2018-01-20T02:27:59.276Z,932.1
2018-01-20T02:29:03.225Z,932.1
2018-01-20T02:30:06.601Z,932.1
2018-01-20T02:31:10.089Z,932.2
2018-01-20T02:32:13.519Z,932.2
2018-01-20T02:33:18.297Z,932.2
2018-01-20T02:34:22.755Z,932.2
2018-01-20T02:35:26.092Z,932.2
2018-01-20T02:36:29.401Z,932.2
2018-01-20T02:37:36.749Z,932.1
2018-01-20T02:38:41.206Z,932.1
2018-01-20T02:39:45.007Z,932.2
2018-01-20T02:40:48.425Z,932.1
2018-01-20T02:41:51.876Z,932.2
2018-01-20T02:42:55.251Z,932.1
2018-01-20T02:43:58.670Z,932.1
2018-01-20T02:45:02.059Z,932.1
2018-01-20T02:46:05.457Z,932.1
2018-01-20T02:47:09.424Z,932
2018-01-20T02:48:16.159Z,932.1
2018-01-20T02:49:19.716Z,932
2018-01-20T02:50:23.604Z,932
2018-01-20T02:51:27.190Z,932
2018-01-20T02:52:31.508Z,932
2018-01-20T02:53:34.839Z,931.9
2018-01-20T02:54:38.237Z,932
2018-01-20T02:55:41.660Z,932
2018-01-20T02:56:45.006Z,932
2018-01-20T02:57:49.036Z,932
2018-01-20T02:58:56.675Z,931.9
2018-01-20T02:59:59.979Z,931.8
2018-01-20T03:01:03.356Z,931.8
2018-01-20T03:02:06.688Z,932
2018-01-20T03:03:11.197Z,931.9
2018-01-20T03:04:16.218Z,931.8
2018-01-20T03:05:21.201Z,931.9
2018-01-20T03:06:25.056Z,931.8
2018-01-20T03:07:28.534Z,931.9
2018-01-20T03:08:33.139Z,931.8
2018-01-20T03:09:40.735Z,931.8
2018-01-20T03:10:45.342Z,931.9
2018-01-20T03:11:49.470Z,931.8
2018-01-20T03:12:53.403Z,931.8
2018-01-20T03:13:56.327Z,931.8
2018-01-20T03:15:01.124Z,931.8
2018-01-20T03:16:05.706Z,931.7
2018-01-20T03:17:10.995Z,931.7
2018-01-20T03:18:14.291Z,931.7
2018-01-20T03:19:18.428Z,931.7
2018-01-20T03:20:27.032Z,931.7
2018-01-20T03:21:31.738Z,931.7
2018-01-20T03:22:34.999Z,931.7
2018-01-20T03:23:38.348Z,931.6
2018-01-20T03:24:41.754Z,931.6
2018-01-20T03:25:46.735Z,928.6
2018-01-20T03:26:50.023Z,931.7
2018-01-20T03:27:53.955Z,931.7
2018-01-20T03:28:57.815Z,931.6
2018-01-20T03:30:02.464Z,931.7
2018-01-20T03:31:46.676Z,931.7
2018-01-20T03:32:49.850Z,931.8
2018-01-20T03:33:54.417Z,931.7
2018-01-20T03:34:59.405Z,931.7
2018-01-20T03:36:04.289Z,931.7
2018-01-20T03:37:08.447Z,931.7
2018-01-20T03:38:13.279Z,931.7
2018-01-20T03:39:17.940Z,931.3
2018-01-20T03:40:23.121Z,931.7
2018-01-20T03:41:27.700Z,931.8
2018-01-20T03:42:36.423Z,931.7
2018-01-20T03:43:40.344Z,931.7
2018-01-20T03:44:45.774Z,931.7
2018-01-20T03:45:49.923Z,931.6
2018-01-20T03:46:54.628Z,931.5
2018-01-20T03:47:57.861Z,931.7
2018-01-20T03:49:02.296Z,931.7
2018-01-20T03:50:07.163Z,931.7
2018-01-20T03:51:11.985Z,931.8
2018-01-20T03:52:16.958Z,931.7
2018-01-20T03:53:58.138Z,931.8
2018-01-20T03:55:01.874Z,931.9
2018-01-20T03:56:05.718Z,931.7
2018-01-20T03:57:09.092Z,931.7
2018-01-20T03:58:13.051Z,931.7
2018-01-20T03:59:18.374Z,931.7
2018-01-20T04:00:23.307Z,931.7
2018-01-20T04:01:27.136Z,931.7
2018-01-20T04:02:31.135Z,931.7
2018-01-20T04:03:36.160Z,931.7
2018-01-20T04:04:46.136Z,931.8
2018-01-20T04:05:49.601Z,931.8
2018-01-20T04:06:53.614Z,931.9
2018-01-20T04:07:58.419Z,927.3
2018-01-20T04:09:02.947Z,931.9
2018-01-20T04:10:08.202Z,931.8
2018-01-20T04:11:11.501Z,931.8
2018-01-20T04:12:16.494Z,931.7
2018-01-20T04:13:20.447Z,931.8
2018-01-20T04:14:26.636Z,931.8
2018-01-20T04:15:35.473Z,931.7
2018-01-20T04:16:40.284Z,931.7
2018-01-20T04:17:43.747Z,931.8
2018-01-20T04:18:48.454Z,931.7
2018-01-20T04:19:53.466Z,931.7
2018-01-20T04:20:58.674Z,931.7
2018-01-20T04:22:04.804Z,931.7
2018-01-20T04:23:09.259Z,931.8
2018-01-20T04:24:13.551Z,931.7
2018-01-20T04:25:18.518Z,931.8
2018-01-20T04:26:27.813Z,931.5
2018-01-20T04:27:32.535Z,931.5
2018-01-20T04:28:37.703Z,931.8
2018-01-20T04:29:44.083Z,931.7
2018-01-20T04:30:49.062Z,931.7
2018-01-20T04:31:53.685Z,931.7
2018-01-20T04:32:57.026Z,931.6
2018-01-20T04:34:01.674Z,931.7
2018-01-20T04:35:06.982Z,931.7
2018-01-20T04:36:11.521Z,931.7
2018-01-20T04:37:20.896Z,931.7
2018-01-20T04:38:24.922Z,931.6
2018-01-20T04:39:29.661Z,931.6
2018-01-20T04:40:35.455Z,931.7
2018-01-20T04:41:38.912Z,931.6
2018-01-20T04:42:44.165Z,931.5
2018-01-20T04:43:48.236Z,931.5
2018-01-20T04:44:52.973Z,931.5
2018-01-20T04:45:57.908Z,927
2018-01-20T04:47:02.097Z,931.5
2018-01-20T04:48:11.617Z,931.6
2018-01-20T04:49:16.080Z,931.7
2018-01-20T04:50:19.536Z,931.6
2018-01-20T04:51:24.247Z,931.6
2018-01-20T04:52:27.720Z,931.5
2018-01-20T04:53:33.230Z,931.5
2018-01-20T04:54:38.137Z,931.6
2018-01-20T04:55:42.803Z,931.5
2018-01-20T04:56:46.123Z,927
2018-01-20T04:57:51.241Z,931.7
2018-01-20T04:59:01.039Z,931.5
2018-01-20T05:00:06.189Z,931.5
2018-01-20T05:01:10.806Z,931.5
2018-01-20T05:02:14.254Z,931.4
2018-01-20T05:03:19.009Z,931.4
2018-01-20T05:04:22.416Z,931.4
2018-01-20T05:05:25.688Z,931.5
2018-01-20T05:06:29.232Z,931.5
2018-01-20T05:07:32.975Z,931.4
2018-01-20T05:08:36.333Z,931.3
2018-01-20T05:09:43.135Z,931.4
2018-01-20T05:10:46.445Z,931.3
2018-01-20T05:11:49.839Z,931.5
2018-01-20T05:12:53.162Z,931.5
2018-01-20T05:13:56.593Z,931.4
2018-01-20T05:14:59.958Z,931.3
2018-01-20T05:16:03.333Z,931.4
2018-01-20T05:17:06.699Z,931.3
2018-01-20T05:18:10.222Z,931.2
2018-01-20T05:19:13.554Z,931.4
2018-01-20T05:20:20.216Z,931.3
2018-01-20T05:21:23.607Z,931.3
2018-01-20T05:22:26.931Z,931.3
2018-01-20T05:23:30.401Z,931.3
2018-01-20T05:24:34.416Z,931.2
2018-01-20T05:25:38.786Z,931.2
2018-01-20T05:26:41.876Z,931.2
2018-01-20T05:27:45.987Z,931.2
2018-01-20T05:28:50.633Z,931.1
2018-01-20T05:29:54.116Z,931.1
2018-01-20T05:31:02.395Z,931.1
2018-01-20T05:32:05.779Z,931.2
2018-01-20T05:33:09.199Z,931.2
2018-01-20T05:34:13.236Z,931.2
2018-01-20T05:35:17.654Z,931.1
2018-01-20T05:36:21.473Z,931.2
2018-01-20T05:37:25.063Z,931.1
2018-01-20T05:38:29.296Z,931.2
2018-01-20T05:39:33.500Z,931.2
2018-01-20T05:40:38.022Z,931.1
2018-01-20T05:41:46.150Z,931
2018-01-20T05:42:51.000Z,931.2
2018-01-20T05:43:54.582Z,931.1
2018-01-20T05:44:59.376Z,931.2
2018-01-20T05:46:03.458Z,923
2018-01-20T05:47:08.675Z,931.2
2018-01-20T05:48:12.196Z,931.2
2018-01-20T05:49:16.253Z,931.2
2018-01-20T05:50:21.883Z,931.2
2018-01-20T05:51:26.331Z,931.2
2018-01-20T05:52:38.991Z,931.1
2018-01-20T05:53:45.481Z,931.2
2018-01-20T05:54:52.621Z,931.2
2018-01-20T05:55:59.590Z,931.1
2018-01-20T05:57:06.085Z,931.1
2018-01-20T05:58:12.440Z,931.1
2018-01-20T05:59:18.418Z,931.1
2018-01-20T06:00:23.474Z,931.1
2018-01-20T06:01:28.622Z,931.1
2018-01-20T06:02:36.049Z,931
2018-01-20T06:04:20.181Z,930.9
2018-01-20T06:05:24.852Z,931
2018-01-20T06:06:30.044Z,930.9
2018-01-20T06:07:37.684Z,931
2018-01-20T06:08:45.918Z,930.9
2018-01-20T06:09:51.843Z,930.9
2018-01-20T06:10:59.978Z,930.8
2018-01-20T06:12:04.740Z,931
2018-01-20T06:13:13.069Z,930.9
2018-01-20T06:14:19.222Z,930.8
2018-01-20T06:16:36.847Z,930.7
2018-01-20T06:17:42.948Z,930.7
2018-01-20T06:18:50.228Z,930.7
2018-01-20T06:19:57.282Z,930.8
2018-01-20T06:21:02.907Z,930.7
2018-01-20T06:22:08.957Z,930.6
2018-01-20T06:23:14.642Z,930.7
2018-01-20T06:24:19.757Z,930.7
2018-01-20T06:25:26.773Z,930.7
2018-01-20T06:26:35.558Z,930.7
2018-01-20T06:27:48.548Z,930.8
2018-01-20T06:28:51.933Z,930.7
2018-01-20T06:29:56.361Z,930.8
2018-01-20T06:31:00.858Z,930.8
2018-01-20T06:32:07.312Z,930.8
2018-01-20T06:33:14.817Z,930.9
2018-01-20T06:34:21.552Z,930.8
2018-01-20T06:35:26.476Z,930.8
2018-01-20T06:36:33.323Z,930.8
2018-01-20T06:37:40.373Z,930.7
2018-01-20T06:38:50.067Z,930.7
2018-01-20T06:39:53.293Z,930.7
2018-01-20T06:41:00.134Z,930.7
2018-01-20T06:42:07.001Z,930.8
2018-01-20T06:43:10.773Z,930.8
2018-01-20T06:44:18.143Z,930.8
2018-01-20T06:45:23.110Z,930.8
2018-01-20T06:46:28.312Z,926.3
2018-01-20T06:47:32.265Z,930.8
2018-01-20T06:48:38.563Z,930.7
2018-01-20T06:49:50.813Z,930.6
2018-01-20T06:50:56.871Z,930.7
2018-01-20T06:52:03.178Z,930.8
2018-01-20T06:53:09.347Z,930.8
2018-01-20T06:54:13.821Z,930.7
2018-01-20T06:55:20.951Z,930.8
2018-01-20T06:56:26.596Z,930.8
2018-01-20T06:57:34.342Z,930.7
2018-01-20T06:58:40.343Z,930.7
2018-01-20T06:59:45.726Z,930.7
2018-01-20T07:00:55.968Z,926.2
2018-01-20T07:02:00.756Z,930.8
2018-01-20T07:03:07.732Z,930.7
2018-01-20T07:04:14.729Z,930.7
2018-01-20T07:05:19.829Z,930.7
2018-01-20T07:06:26.934Z,930.6
2018-01-20T07:07:32.595Z,930.7
2018-01-20T07:08:38.689Z,930.7
2018-01-20T07:09:44.708Z,930.8
2018-01-20T07:10:49.947Z,930.7
2018-01-20T07:12:35.072Z,930.8
2018-01-20T07:13:42.430Z,930.7
2018-01-20T07:14:48.265Z,930.7
2018-01-20T07:15:53.612Z,930.7
2018-01-20T07:16:59.950Z,930.7
2018-01-20T07:18:07.655Z,930.7
2018-01-20T07:19:13.214Z,930.7
2018-01-20T07:20:20.513Z,930.7
2018-01-20T07:21:25.096Z,930.6
2018-01-20T07:22:29.995Z,930.7
2018-01-20T07:24:10.715Z,930.8
2018-01-20T07:25:15.972Z,930.8
2018-01-20T07:26:22.087Z,930.7
2018-01-20T07:27:25.499Z,930.7
2018-01-20T07:28:33.912Z,930.7
2018-01-20T07:29:37.694Z,930.6
2018-01-20T07:30:43.363Z,930.6
2018-01-20T07:31:49.822Z,930.6
2018-01-20T07:32:58.957Z,930.6
2018-01-20T07:34:05.040Z,930.7
2018-01-20T07:35:49.470Z,930.6
2018-01-20T07:36:54.925Z,929.8
2018-01-20T07:38:01.951Z,930.7
2018-01-20T07:39:08.249Z,930.7
2018-01-20T07:40:13.124Z,929.2
2018-01-20T07:41:17.661Z,930.7
2018-01-20T07:42:25.088Z,930.6
2018-01-20T07:43:30.340Z,930.7
2018-01-20T07:44:34.857Z,930.5
2018-01-20T07:45:40.361Z,930.6
2018-01-20T07:46:49.966Z,930.5
2018-01-20T07:47:53.414Z,930.6
2018-01-20T07:48:56.688Z,930.4
2018-01-20T07:50:00.121Z,930.3
2018-01-20T07:51:03.657Z,930.4
2018-01-20T07:52:07.612Z,930.5
2018-01-20T07:53:11.604Z,930.5
2018-01-20T07:54:14.866Z,930.5
2018-01-20T07:55:18.112Z,930.4
2018-01-20T07:56:21.373Z,930.5
2018-01-20T07:57:28.558Z,930.5
2018-01-20T07:58:32.064Z,930.6
2018-01-20T07:59:35.341Z,930.5
2018-01-20T08:00:39.521Z,930.5
2018-01-20T08:01:43.301Z,930.5
2018-01-20T08:02:46.678Z,930.5
2018-01-20T08:03:50.169Z,930.6
2018-01-20T08:04:54.200Z,930.6
2018-01-20T08:05:57.630Z,930.6
2018-01-20T08:07:01.593Z,930.5
2018-01-20T08:08:09.244Z,930.5
2018-01-20T08:09:12.468Z,930.5
2018-01-20T08:10:15.784Z,930.6
2018-01-20T08:11:19.662Z,930.7
2018-01-20T08:12:22.998Z,930.6
2018-01-20T08:13:26.398Z,930.5
2018-01-20T08:14:29.824Z,930.6
2018-01-20T08:15:33.138Z,930.6
2018-01-20T08:16:37.583Z,930.7
2018-01-20T08:17:41.660Z,930.7
2018-01-20T08:18:49.599Z,930.7
2018-01-20T08:19:53.995Z,930.6
2018-01-20T08:20:57.381Z,930.6
2018-01-20T08:22:00.937Z,930.4
2018-01-20T08:23:04.412Z,930.5
2018-01-20T08:24:07.749Z,930.5
2018-01-20T08:25:10.996Z,930.4
2018-01-20T08:26:15.550Z,930.5
2018-01-20T08:27:19.049Z,930.5
2018-01-20T08:28:22.381Z,930.5
2018-01-20T08:29:29.222Z,930.5
2018-01-20T08:30:32.555Z,930.4
2018-01-20T08:31:36.564Z,930.4
2018-01-20T08:32:41.232Z,930.4
2018-01-20T08:33:44.509Z,930.4
2018-01-20T08:34:47.861Z,930.3
2018-01-20T08:35:51.910Z,930.3
2018-01-20T08:36:55.166Z,930.4
2018-01-20T08:37:59.597Z,930.5
2018-01-20T08:39:02.803Z,930.5
2018-01-20T08:40:09.683Z,930.5
2018-01-20T08:41:12.970Z,930.5
2018-01-20T08:42:16.280Z,929
2018-01-20T08:43:19.670Z,930.4
2018-01-20T08:44:22.962Z,930.5
2018-01-20T08:45:26.887Z,930.4
2018-01-20T08:46:30.379Z,930.3
2018-01-20T08:47:33.895Z,930.4
2018-01-20T08:48:37.364Z,930.5
2018-01-20T08:49:40.709Z,930.5
2018-01-20T08:50:49.106Z,930.5
2018-01-20T08:51:53.232Z,930.6
2018-01-20T08:52:57.277Z,926.3
2018-01-20T08:54:01.273Z,930.5
2018-01-20T08:55:04.677Z,930.5
2018-01-20T08:56:09.856Z,930.6
2018-01-20T08:57:13.041Z,930.6
2018-01-20T08:58:16.311Z,930.6
2018-01-20T08:59:20.238Z,930.7
2018-01-20T09:00:23.747Z,930.7
2018-01-20T09:01:33.745Z,930.7
2018-01-20T09:02:39.104Z,929.2
2018-01-20T09:03:42.520Z,930.6
2018-01-20T09:04:46.000Z,930.6
2018-01-20T09:05:49.399Z,930.7
2018-01-20T09:06:53.641Z,930.7
2018-01-20T09:07:57.053Z,930.8
2018-01-20T09:09:01.622Z,930.7
2018-01-20T09:10:05.524Z,930.9
2018-01-20T09:11:09.038Z,930.9
2018-01-20T09:12:16.653Z,931
2018-01-20T09:13:20.053Z,930.9
2018-01-20T09:14:23.626Z,931
2018-01-20T09:15:27.969Z,931
2018-01-20T09:16:32.807Z,931
2018-01-20T09:17:38.219Z,931.1
2018-01-20T09:18:42.268Z,931.2
2018-01-20T09:19:46.066Z,931
2018-01-20T09:20:51.571Z,931
2018-01-20T09:21:54.869Z,930.9
2018-01-20T09:23:02.517Z,930.9
2018-01-20T09:24:05.976Z,930.9
2018-01-20T09:25:09.308Z,930.8
2018-01-20T09:26:12.575Z,930.8
2018-01-20T09:27:16.037Z,930.8
2018-01-20T09:28:19.511Z,926.6
2018-01-20T09:29:23.307Z,930.9
2018-01-20T09:30:27.761Z,930.6
2018-01-20T09:31:31.158Z,930.7
2018-01-20T09:32:34.595Z,930.7
2018-01-20T09:33:42.351Z,930.6
2018-01-20T09:34:45.804Z,930.6
2018-01-20T09:35:49.378Z,930.6
2018-01-20T09:36:53.413Z,930.6
2018-01-20T09:37:56.767Z,930.6
2018-01-20T09:39:00.867Z,930.6
2018-01-20T09:40:05.692Z,930.2
2018-01-20T09:41:09.622Z,930.5
2018-01-20T09:42:12.980Z,930.5
2018-01-20T09:43:16.563Z,930.4
2018-01-20T09:44:23.616Z,930.3
2018-01-20T09:45:27.578Z,930.4
2018-01-20T09:46:31.103Z,930.4
2018-01-20T09:47:34.650Z,930.5
2018-01-20T09:48:38.618Z,930.4
2018-01-20T09:49:41.949Z,930.5
2018-01-20T09:50:46.107Z,930.4
2018-01-20T09:51:49.553Z,929.4
2018-01-20T09:52:53.009Z,930.4
2018-01-20T09:53:56.521Z,930.3
2018-01-20T09:55:04.342Z,930.3
2018-01-20T09:56:09.579Z,926
2018-01-20T09:57:13.485Z,930.3
2018-01-20T09:58:17.045Z,930.3
2018-01-20T09:59:20.550Z,930.3
2018-01-20T10:00:24.116Z,930.2
2018-01-20T10:01:27.530Z,930.3
2018-01-20T10:02:31.043Z,930.3
2018-01-20T10:03:34.486Z,930.3
2018-01-20T10:04:37.789Z,930.2
2018-01-20T10:05:44.890Z,930.2
2018-01-20T10:06:48.213Z,930.2
2018-01-20T10:07:51.729Z,930.2
2018-01-20T10:08:57.207Z,930.2
2018-01-20T10:10:00.492Z,930.1
2018-01-20T10:11:03.777Z,930.1
2018-01-20T10:12:07.185Z,930
2018-01-20T10:13:10.652Z,930.1
2018-01-20T10:14:14.058Z,930.1
2018-01-20T10:15:17.552Z,928.7
2018-01-20T10:16:24.327Z,930.1
2018-01-20T10:17:27.734Z,930
2018-01-20T10:18:31.168Z,930
2018-01-20T10:19:34.582Z,930
2018-01-20T10:20:38.036Z,929.9
2018-01-20T10:21:41.531Z,929.9
2018-01-20T10:22:44.831Z,929.8
2018-01-20T10:23:48.153Z,929.8
2018-01-20T10:24:51.487Z,929.8
2018-01-20T10:25:54.991Z,929.8
2018-01-20T10:27:02.177Z,929.8
2018-01-20T10:28:05.679Z,929.8
2018-01-20T10:29:09.107Z,929.7
2018-01-20T10:30:12.622Z,929.8
2018-01-20T10:31:16.379Z,929.8
2018-01-20T10:32:20.640Z,929.7
2018-01-20T10:33:24.027Z,929.7
2018-01-20T10:34:27.538Z,925.7
2018-01-20T10:35:31.006Z,929.7
2018-01-20T10:36:34.540Z,929.6
2018-01-20T10:37:41.476Z,929.6
2018-01-20T10:38:44.842Z,929.5
2018-01-20T10:39:48.150Z,929.5
2018-01-20T10:40:51.533Z,929.5
2018-01-20T10:41:54.993Z,929.4
2018-01-20T10:42:58.498Z,929.6
2018-01-20T10:44:01.787Z,929.4
2018-01-20T10:45:05.178Z,929.5
2018-01-20T10:46:08.643Z,929.5
2018-01-20T10:47:11.981Z,929.5
2018-01-20T10:48:18.846Z,929.2
2018-01-20T10:49:22.233Z,929.3
2018-01-20T10:50:25.508Z,929.3
2018-01-20T10:51:28.976Z,929.2
2018-01-20T10:52:32.294Z,929.3
2018-01-20T10:53:35.839Z,929.1
2018-01-20T10:54:39.241Z,929.3
2018-01-20T10:55:42.747Z,929.2
2018-01-20T10:56:46.242Z,929.2
2018-01-20T10:57:49.701Z,929.3
2018-01-20T10:58:56.739Z,924.8
2018-01-20T11:00:00.111Z,929.2
2018-01-20T11:01:03.596Z,929.2
2018-01-20T11:02:07.711Z,929.2
2018-01-20T11:03:11.237Z,929.1
2018-01-20T11:04:14.766Z,929.1
2018-01-20T11:05:18.167Z,929
2018-01-20T11:06:22.104Z,929
2018-01-20T11:07:25.690Z,929
2018-01-20T11:08:29.023Z,928.8
2018-01-20T11:09:35.998Z,928.9
2018-01-20T11:10:39.585Z,928.9
2018-01-20T11:11:43.805Z,928.9
2018-01-20T11:12:47.692Z,928.9
2018-01-20T11:13:51.678Z,929
2018-01-20T11:14:55.120Z,928.9
2018-01-20T11:15:58.776Z,928.9
2018-01-20T11:17:02.323Z,926.6
2018-01-20T11:18:05.812Z,928.8
2018-01-20T11:19:09.778Z,928.8
2018-01-20T11:20:17.236Z,928.8
2018-01-20T11:21:21.133Z,928.7
2018-01-20T11:22:25.141Z,928.7
2018-01-20T11:23:29.053Z,928.6
2018-01-20T11:24:33.929Z,928.6
2018-01-20T11:25:38.423Z,928.5
2018-01-20T11:26:41.960Z,928.5
2018-01-20T11:27:45.611Z,928.5
2018-01-20T11:28:49.080Z,928.5
2018-01-20T11:29:53.493Z,928.4
2018-01-20T11:31:00.454Z,928.4
2018-01-20T11:32:04.766Z,928.3
2018-01-20T11:33:08.477Z,928.4
2018-01-20T11:34:13.558Z,928.1
2018-01-20T11:35:17.452Z,928.1
2018-01-20T11:36:20.829Z,928.1
2018-01-20T11:37:24.371Z,928
2018-01-20T11:38:27.758Z,927.9
2018-01-20T11:39:31.245Z,928
2018-01-20T11:40:34.519Z,927.9
2018-01-20T11:41:41.370Z,928
2018-01-20T11:42:44.914Z,928
2018-01-20T11:43:48.257Z,927.9
2018-01-20T11:44:51.771Z,927.9
2018-01-20T11:45:55.299Z,927.8
2018-01-20T11:46:58.731Z,927.8
2018-01-20T11:48:02.250Z,927.9
2018-01-20T11:49:05.632Z,927.9
2018-01-20T11:50:09.435Z,927.9
2018-01-20T11:51:13.534Z,927.8
2018-01-20T11:52:20.676Z,927.7
2018-01-20T11:53:24.378Z,927.8
2018-01-20T11:54:27.960Z,927.7
2018-01-20T11:55:31.462Z,927.7
2018-01-20T11:56:36.244Z,927.6
2018-01-20T11:57:40.292Z,927.6
2018-01-20T11:58:44.338Z,927.6
2018-01-20T11:59:47.750Z,926.7
2018-01-20T12:00:52.295Z,927.6
2018-01-20T12:01:55.563Z,927.5
2018-01-20T12:03:02.612Z,927.6
2018-01-20T12:04:06.941Z,927.5
2018-01-20T12:05:10.263Z,927.4
2018-01-20T12:06:13.661Z,927.4
2018-01-20T12:07:17.739Z,927.4
2018-01-20T12:08:21.777Z,927.4
2018-01-20T12:09:25.863Z,927.3
2018-01-20T12:10:29.366Z,923.4
2018-01-20T12:11:35.149Z,927.3
2018-01-20T12:12:38.404Z,927.2
2018-01-20T12:13:46.041Z,923.2
2018-01-20T12:14:49.520Z,927.2
2018-01-20T12:15:54.342Z,927.1
2018-01-20T12:16:57.832Z,927.1
2018-01-20T12:18:01.232Z,927.1
2018-01-20T12:19:06.762Z,927
2018-01-20T12:20:10.851Z,927
2018-01-20T12:21:15.483Z,927
2018-01-20T12:22:19.439Z,927
2018-01-20T12:23:25.676Z,927
2018-01-20T12:24:33.614Z,926.9
2018-01-20T12:25:38.032Z,926.8
2018-01-20T12:26:41.470Z,926.9
2018-01-20T12:27:48.903Z,926.8
2018-01-20T12:28:52.808Z,926.8
2018-01-20T12:29:56.220Z,926.8
2018-01-20T12:30:59.741Z,926.8
2018-01-20T12:32:06.406Z,926.7
2018-01-20T12:33:09.820Z,926.7
2018-01-20T12:34:13.062Z,926.7
2018-01-20T12:35:20.524Z,926.6
2018-01-20T12:36:24.040Z,926.6
2018-01-20T12:37:29.577Z,926.6
2018-01-20T12:38:32.862Z,926.4
2018-01-20T12:39:37.955Z,926.6
2018-01-20T12:40:42.048Z,926.6
2018-01-20T12:41:47.677Z,926.5
2018-01-20T12:42:51.009Z,926.4
2018-01-20T12:43:54.623Z,926.4
2018-01-20T12:44:58.780Z,926.4
2018-01-20T12:46:05.775Z,926.4
2018-01-20T12:47:09.118Z,926.3
2018-01-20T12:48:12.563Z,926.3
2018-01-20T12:49:16.081Z,926.2
2018-01-20T12:50:19.671Z,926.2
2018-01-20T12:51:24.369Z,926.2
2018-01-20T12:52:29.007Z,926.2
2018-01-20T12:53:37.004Z,926.1
2018-01-20T12:54:40.483Z,926
2018-01-20T12:55:45.482Z,926
2018-01-20T12:56:53.401Z,926
2018-01-20T12:57:57.657Z,926
2018-01-20T12:59:01.322Z,926
2018-01-20T13:00:05.349Z,925.9
2018-01-20T13:01:09.813Z,925.9
2018-01-20T13:02:15.544Z,925.9
2018-01-20T13:03:19.089Z,925.9
2018-01-20T13:04:24.594Z,925.9
2018-01-20T13:05:27.901Z,922
2018-01-20T13:06:31.507Z,925.9
2018-01-20T13:07:39.435Z,925.9
2018-01-20T13:08:43.514Z,925.9
2018-01-20T13:09:46.961Z,925.7
2018-01-20T13:10:50.187Z,925.7
2018-01-20T13:11:53.648Z,925.7
2018-01-20T13:12:58.822Z,925.7
2018-01-20T13:14:03.378Z,919.7
2018-01-20T13:15:06.838Z,925.6
2018-01-20T13:16:10.699Z,925.6
2018-01-20T13:17:15.458Z,925.6
2018-01-20T13:18:56.075Z,925.5
2018-01-20T13:20:00.255Z,925.5
2018-01-20T13:21:03.794Z,925.4
2018-01-20T13:22:07.092Z,925.4
2018-01-20T13:23:11.216Z,925.4
2018-01-20T13:24:14.398Z,925.4
2018-01-20T13:25:18.803Z,925.4
2018-01-20T13:26:22.419Z,925.4
2018-01-20T13:27:26.264Z,925.2
2018-01-20T13:28:29.720Z,925.3
2018-01-20T13:29:38.475Z,925.3
2018-01-20T13:30:42.390Z,925.2
2018-01-20T13:31:47.345Z,925.2
2018-01-20T13:32:50.774Z,925.2
2018-01-20T13:33:53.936Z,925.2
2018-01-20T13:34:57.803Z,925
2018-01-20T13:36:01.103Z,925
2018-01-20T13:37:05.375Z,925
2018-01-20T13:38:08.889Z,925
2018-01-20T13:39:12.972Z,924.9
2018-01-20T13:40:22.395Z,924.9
2018-01-20T13:41:26.513Z,921
2018-01-20T13:42:31.278Z,924.9
2018-01-20T13:43:36.459Z,924.8
2018-01-20T13:44:40.743Z,924.8
2018-01-20T13:45:44.320Z,924.8
2018-01-20T13:46:47.736Z,924.8
2018-01-20T13:47:53.336Z,924.7
2018-01-20T13:48:57.039Z,924.7
2018-01-20T13:50:00.591Z,924.7
2018-01-20T13:51:39.973Z,924.5
2018-01-20T13:52:43.505Z,924.4
2018-01-20T13:53:46.944Z,924.4
2018-01-20T13:54:51.850Z,924.3
2018-01-20T13:55:55.329Z,924.3
2018-01-20T13:56:59.297Z,924.3
2018-01-20T13:58:04.133Z,924.2
2018-01-20T13:59:07.529Z,924.2
2018-01-20T14:00:11.066Z,924.2
2018-01-20T14:01:19.178Z,924.2
2018-01-20T14:03:11.181Z,924.1
2018-01-20T14:04:14.778Z,924.1
2018-01-20T14:05:19.365Z,924
2018-01-20T14:06:23.128Z,924